sensor_id;sensor_type;location;lat;lon;timestamp;temperature;humidity
10459;DHT22;5277;48.722;8.736;2023-01-13T00:00:07;9.70;99.90
10459;DHT22;5277;48.722;8.736;2023-01-13T00:03:24;9.70;99.90
10459;DHT22;5277;48.722;8.736;2023-01-13T00:06:38;9.70;99.90
10459;DHT22;5277;48.722;8.736;2023-01-13T00:09:40;9.60;99.90
10459;DHT22;5277;48.722;8.736;2023-01-13T00:12:17;9.50;99.90
10459;DHT22;5277;48.722;8.736;2023-01-13T00:14:54;9.40;99.90
10459;DHT22;5277;48.722;8.736;2023-01-13T00:17:42;9.40;99.90
10459;DHT22;5277;48.722;8.736;2023-01-13T00:20:13;9.40;99.90
10459;DHT22;5277;48.722;8.736;2023-01-13T00:22:53;9.40;99.90
10459;DHT22;5277;48.722;8.736;2023-01-13T00:25:37;9.50;99.90
10459;DHT22;5277;48.722;8.736;2023-01-13T00:28:11;9.50;99.90
10459;DHT22;5277;48.722;8.736;2023-01-13T00:30:58;9.40;99.90
10459;DHT22;5277;48.722;8.736;2023-01-13T00:33:39;9.30;99.90
10459;DHT22;5277;48.722;8.736;2023-01-13T00:36:27;9.40;99.90
10459;DHT22;5277;48.722;8.736;2023-01-13T00:38:53;9.40;99.90
10459;DHT22;5277;48.722;8.736;2023-01-13T00:44:34;9.30;99.90
10459;DHT22;5277;48.722;8.736;2023-01-13T00:47:29;9.40;99.90
10459;DHT22;5277;48.722;8.736;2023-01-13T00:50:10;9.30;99.90
10459;DHT22;5277;48.722;8.736;2023-01-13T00:58:33;9.40;99.90
10459;DHT22;5277;48.722;8.736;2023-01-13T01:01:08;9.40;99.90
10459;DHT22;5277;48.722;8.736;2023-01-13T01:03:55;9.50;99.90
10459;DHT22;5277;48.722;8.736;2023-01-13T01:06:27;9.60;99.90
10459;DHT22;5277;48.722;8.736;2023-01-13T01:09:14;9.60;99.90
10459;DHT22;5277;48.722;8.736;2023-01-13T01:11:53;9.70;99.90
10459;DHT22;5277;48.722;8.736;2023-01-13T01:14:29;9.70;99.90
10459;DHT22;5277;48.722;8.736;2023-01-13T01:20:44;9.80;99.90
10459;DHT22;5277;48.722;8.736;2023-01-13T01:23:39;9.80;99.90
10459;DHT22;5277;48.722;8.736;2023-01-13T01:29:28;9.80;99.90
10459;DHT22;5277;48.722;8.736;2023-01-13T01:58:40;9.60;99.90
10459;DHT22;5277;48.722;8.736;2023-01-13T02:01:11;9.60;99.90
10459;DHT22;5277;48.722;8.736;2023-01-13T02:03:38;9.60;99.90
10459;DHT22;5277;48.722;8.736;2023-01-13T02:06:07;9.60;99.90
10459;DHT22;5277;48.722;8.736;2023-01-13T02:08:32;9.60;99.90
10459;DHT22;5277;48.722;8.736;2023-01-13T02:10:59;9.60;99.90
10459;DHT22;5277;48.722;8.736;2023-01-13T02:13:24;9.50;99.90
10459;DHT22;5277;48.722;8.736;2023-01-13T02:16:05;9.60;99.90
10459;DHT22;5277;48.722;8.736;2023-01-13T02:18:57;9.60;99.90
10459;DHT22;5277;48.722;8.736;2023-01-13T02:25:03;9.60;99.90
10459;DHT22;5277;48.722;8.736;2023-01-13T02:31:14;9.60;99.90
10459;DHT22;5277;48.722;8.736;2023-01-13T02:34:04;9.50;99.90
10459;DHT22;5277;48.722;8.736;2023-01-13T02:36:38;9.50;99.90
10459;DHT22;5277;48.722;8.736;2023-01-13T02:39:18;9.50;99.90
10459;DHT22;5277;48.722;8.736;2023-01-13T02:41:52;9.50;99.90
10459;DHT22;5277;48.722;8.736;2023-01-13T02:44:47;9.50;99.90
10459;DHT22;5277;48.722;8.736;2023-01-13T02:47:20;9.50;99.90
10459;DHT22;5277;48.722;8.736;2023-01-13T02:49:53;9.40;99.90
10459;DHT22;5277;48.722;8.736;2023-01-13T02:55:01;9.30;99.90
10459;DHT22;5277;48.722;8.736;2023-01-13T02:57:30;9.30;99.90
10459;DHT22;5277;48.722;8.736;2023-01-13T02:59:57;9.40;99.90
10459;DHT22;5277;48.722;8.736;2023-01-13T03:02:24;9.40;99.90
10459;DHT22;5277;48.722;8.736;2023-01-13T03:04:58;9.30;99.90
10459;DHT22;5277;48.722;8.736;2023-01-13T03:08:07;9.30;99.90
10459;DHT22;5277;48.722;8.736;2023-01-13T03:13:58;9.40;99.90
10459;DHT22;5277;48.722;8.736;2023-01-13T03:19:30;9.40;99.90
10459;DHT22;5277;48.722;8.736;2023-01-13T03:24:54;9.30;99.90
10459;DHT22;5277;48.722;8.736;2023-01-13T03:27:25;9.30;99.90
10459;DHT22;5277;48.722;8.736;2023-01-13T03:30:02;9.40;99.90
10459;DHT22;5277;48.722;8.736;2023-01-13T03:32:47;9.30;99.90
10459;DHT22;5277;48.722;8.736;2023-01-13T03:35:37;9.30;99.90
10459;DHT22;5277;48.722;8.736;2023-01-13T03:38:50;9.30;99.90
10459;DHT22;5277;48.722;8.736;2023-01-13T03:41:00;9.30;99.90
10459;DHT22;5277;48.722;8.736;2023-01-13T03:43:40;9.30;99.90
10459;DHT22;5277;48.722;8.736;2023-01-13T03:46:41;9.40;99.90
10459;DHT22;5277;48.722;8.736;2023-01-13T03:49:12;9.40;99.90
10459;DHT22;5277;48.722;8.736;2023-01-13T03:51:40;9.40;99.90
10459;DHT22;5277;48.722;8.736;2023-01-13T03:54:10;9.40;99.90
10459;DHT22;5277;48.722;8.736;2023-01-13T03:56:49;9.40;99.90
10459;DHT22;5277;48.722;8.736;2023-01-13T03:59:20;9.40;99.90
10459;DHT22;5277;48.722;8.736;2023-01-13T04:02:26;9.40;99.90
10459;DHT22;5277;48.722;8.736;2023-01-13T04:05:00;9.40;99.90
10459;DHT22;5277;48.722;8.736;2023-01-13T04:08:01;9.40;99.90
10459;DHT22;5277;48.722;8.736;2023-01-13T04:10:42;9.40;99.90
10459;DHT22;5277;48.722;8.736;2023-01-13T04:13:16;9.40;99.90
10459;DHT22;5277;48.722;8.736;2023-01-13T04:15:44;9.30;99.90
10459;DHT22;5277;48.722;8.736;2023-01-13T04:18:25;9.30;99.90
10459;DHT22;5277;48.722;8.736;2023-01-13T04:20:53;9.30;99.90
10459;DHT22;5277;48.722;8.736;2023-01-13T04:23:20;9.40;99.90
10459;DHT22;5277;48.722;8.736;2023-01-13T04:25:46;9.40;99.90
10459;DHT22;5277;48.722;8.736;2023-01-13T04:28:13;9.30;99.90
10459;DHT22;5277;48.722;8.736;2023-01-13T04:30:40;9.40;99.90
10459;DHT22;5277;48.722;8.736;2023-01-13T04:33:07;9.40;99.90
10459;DHT22;5277;48.722;8.736;2023-01-13T04:35:33;9.40;99.90
10459;DHT22;5277;48.722;8.736;2023-01-13T04:38:04;9.40;99.90
10459;DHT22;5277;48.722;8.736;2023-01-13T04:40:30;9.40;99.90
10459;DHT22;5277;48.722;8.736;2023-01-13T04:42:55;9.40;99.90
10459;DHT22;5277;48.722;8.736;2023-01-13T04:45:21;9.40;99.90
10459;DHT22;5277;48.722;8.736;2023-01-13T04:47:46;9.40;99.90
10459;DHT22;5277;48.722;8.736;2023-01-13T04:50:13;9.40;99.90
10459;DHT22;5277;48.722;8.736;2023-01-13T04:52:39;9.40;99.90
10459;DHT22;5277;48.722;8.736;2023-01-13T04:55:05;9.40;99.90
10459;DHT22;5277;48.722;8.736;2023-01-13T04:57:32;9.50;99.90
10459;DHT22;5277;48.722;8.736;2023-01-13T05:00:01;9.40;99.90
10459;DHT22;5277;48.722;8.736;2023-01-13T05:02:27;9.40;99.90
10459;DHT22;5277;48.722;8.736;2023-01-13T05:04:52;9.40;99.90
10459;DHT22;5277;48.722;8.736;2023-01-13T05:07:18;9.30;99.90
10459;DHT22;5277;48.722;8.736;2023-01-13T05:09:43;9.40;99.90
10459;DHT22;5277;48.722;8.736;2023-01-13T05:12:10;9.40;99.90
10459;DHT22;5277;48.722;8.736;2023-01-13T05:14:54;9.40;99.90
10459;DHT22;5277;48.722;8.736;2023-01-13T05:17:38;9.40;99.90
10459;DHT22;5277;48.722;8.736;2023-01-13T05:20:05;9.50;99.90
10459;DHT22;5277;48.722;8.736;2023-01-13T05:22:31;9.50;99.90
10459;DHT22;5277;48.722;8.736;2023-01-13T05:25:15;9.60;99.90
10459;DHT22;5277;48.722;8.736;2023-01-13T05:27:55;9.60;99.90
10459;DHT22;5277;48.722;8.736;2023-01-13T05:30:23;9.60;99.90
10459;DHT22;5277;48.722;8.736;2023-01-13T05:32:50;9.50;99.90
10459;DHT22;5277;48.722;8.736;2023-01-13T05:35:15;9.50;99.90
10459;DHT22;5277;48.722;8.736;2023-01-13T05:37:45;9.50;99.90
10459;DHT22;5277;48.722;8.736;2023-01-13T05:40:13;9.50;99.90
10459;DHT22;5277;48.722;8.736;2023-01-13T05:43:15;9.50;99.90
10459;DHT22;5277;48.722;8.736;2023-01-13T05:46:04;9.50;99.90
10459;DHT22;5277;48.722;8.736;2023-01-13T05:48:36;9.60;99.90
10459;DHT22;5277;48.722;8.736;2023-01-13T05:51:04;9.60;99.90
10459;DHT22;5277;48.722;8.736;2023-01-13T05:53:30;9.70;99.90
10459;DHT22;5277;48.722;8.736;2023-01-13T05:55:56;9.70;99.90
10459;DHT22;5277;48.722;8.736;2023-01-13T05:58:24;9.70;99.90
10459;DHT22;5277;48.722;8.736;2023-01-13T06:00:50;9.70;99.90
10459;DHT22;5277;48.722;8.736;2023-01-13T06:03:16;9.70;99.90
10459;DHT22;5277;48.722;8.736;2023-01-13T06:05:44;9.70;99.90
10459;DHT22;5277;48.722;8.736;2023-01-13T06:08:12;9.70;99.90
10459;DHT22;5277;48.722;8.736;2023-01-13T06:10:43;9.70;99.90
10459;DHT22;5277;48.722;8.736;2023-01-13T06:13:13;9.70;99.90
10459;DHT22;5277;48.722;8.736;2023-01-13T06:15:41;9.80;99.90
10459;DHT22;5277;48.722;8.736;2023-01-13T06:18:07;9.90;99.90
10459;DHT22;5277;48.722;8.736;2023-01-13T06:20:33;9.90;99.90
10459;DHT22;5277;48.722;8.736;2023-01-13T06:22:59;9.90;99.90
10459;DHT22;5277;48.722;8.736;2023-01-13T06:27:51;9.90;99.90
10459;DHT22;5277;48.722;8.736;2023-01-13T06:30:20;9.90;99.90
10459;DHT22;5277;48.722;8.736;2023-01-13T06:32:50;9.90;99.90
10459;DHT22;5277;48.722;8.736;2023-01-13T06:35:19;9.90;99.90
10459;DHT22;5277;48.722;8.736;2023-01-13T06:37:48;9.80;99.90
10459;DHT22;5277;48.722;8.736;2023-01-13T06:40:15;9.90;99.90
10459;DHT22;5277;48.722;8.736;2023-01-13T06:42:41;9.80;99.90
10459;DHT22;5277;48.722;8.736;2023-01-13T06:45:26;9.90;99.90
10459;DHT22;5277;48.722;8.736;2023-01-13T06:47:53;9.80;99.90
10459;DHT22;5277;48.722;8.736;2023-01-13T06:50:21;9.90;99.90
10459;DHT22;5277;48.722;8.736;2023-01-13T06:52:46;9.80;99.90
10459;DHT22;5277;48.722;8.736;2023-01-13T06:55:12;9.90;99.90
10459;DHT22;5277;48.722;8.736;2023-01-13T06:57:55;9.90;99.90
10459;DHT22;5277;48.722;8.736;2023-01-13T07:00:22;9.80;99.90
10459;DHT22;5277;48.722;8.736;2023-01-13T07:02:48;9.90;99.90
10459;DHT22;5277;48.722;8.736;2023-01-13T07:05:15;9.90;99.90
10459;DHT22;5277;48.722;8.736;2023-01-13T07:07:40;9.80;99.90
10459;DHT22;5277;48.722;8.736;2023-01-13T07:10:07;9.90;99.90
10459;DHT22;5277;48.722;8.736;2023-01-13T07:12:36;9.90;99.90
10459;DHT22;5277;48.722;8.736;2023-01-13T07:15:22;9.90;99.90
10459;DHT22;5277;48.722;8.736;2023-01-13T07:17:47;9.90;99.90
10459;DHT22;5277;48.722;8.736;2023-01-13T07:20:14;9.90;99.90
10459;DHT22;5277;48.722;8.736;2023-01-13T07:22:39;9.90;99.90
10459;DHT22;5277;48.722;8.736;2023-01-13T07:25:05;9.90;99.90
10459;DHT22;5277;48.722;8.736;2023-01-13T07:27:31;9.90;99.90
10459;DHT22;5277;48.722;8.736;2023-01-13T07:29:56;10.00;99.90
10459;DHT22;5277;48.722;8.736;2023-01-13T07:32:22;10.00;99.90
10459;DHT22;5277;48.722;8.736;2023-01-13T07:34:47;9.90;99.90
10459;DHT22;5277;48.722;8.736;2023-01-13T07:37:13;9.90;99.90
10459;DHT22;5277;48.722;8.736;2023-01-13T07:39:39;9.80;99.90
10459;DHT22;5277;48.722;8.736;2023-01-13T07:42:04;9.80;99.90
10459;DHT22;5277;48.722;8.736;2023-01-13T07:44:48;9.70;99.90
10459;DHT22;5277;48.722;8.736;2023-01-13T07:47:14;9.80;99.90
10459;DHT22;5277;48.722;8.736;2023-01-13T07:49:39;9.80;99.90
10459;DHT22;5277;48.722;8.736;2023-01-13T07:52:05;9.80;99.90
10459;DHT22;5277;48.722;8.736;2023-01-13T07:54:31;9.80;99.90
10459;DHT22;5277;48.722;8.736;2023-01-13T07:56:56;9.80;99.90
10459;DHT22;5277;48.722;8.736;2023-01-13T07:59:22;9.90;99.90
10459;DHT22;5277;48.722;8.736;2023-01-13T08:01:47;9.90;99.90
10459;DHT22;5277;48.722;8.736;2023-01-13T08:04:16;9.90;99.90
10459;DHT22;5277;48.722;8.736;2023-01-13T08:06:41;9.90;99.90
10459;DHT22;5277;48.722;8.736;2023-01-13T08:09:08;9.90;99.90
10459;DHT22;5277;48.722;8.736;2023-01-13T08:11:33;10.00;99.90
10459;DHT22;5277;48.722;8.736;2023-01-13T08:13:59;10.00;99.90
10459;DHT22;5277;48.722;8.736;2023-01-13T08:16:25;10.00;99.90
10459;DHT22;5277;48.722;8.736;2023-01-13T08:18:50;10.00;99.90
10459;DHT22;5277;48.722;8.736;2023-01-13T08:21:16;10.00;99.90
10459;DHT22;5277;48.722;8.736;2023-01-13T08:23:43;10.10;99.90
10459;DHT22;5277;48.722;8.736;2023-01-13T08:26:12;10.10;99.90
10459;DHT22;5277;48.722;8.736;2023-01-13T08:28:38;10.10;99.90
10459;DHT22;5277;48.722;8.736;2023-01-13T08:31:09;10.00;99.90
10459;DHT22;5277;48.722;8.736;2023-01-13T08:33:35;10.00;99.90
10459;DHT22;5277;48.722;8.736;2023-01-13T08:36:04;10.00;99.90
10459;DHT22;5277;48.722;8.736;2023-01-13T08:38:30;10.10;99.90
10459;DHT22;5277;48.722;8.736;2023-01-13T08:40:56;10.10;99.90
10459;DHT22;5277;48.722;8.736;2023-01-13T08:43:22;10.10;99.90
10459;DHT22;5277;48.722;8.736;2023-01-13T08:45:59;10.20;99.90
10459;DHT22;5277;48.722;8.736;2023-01-13T08:48:26;10.30;99.90
10459;DHT22;5277;48.722;8.736;2023-01-13T08:50:52;10.30;99.90
10459;DHT22;5277;48.722;8.736;2023-01-13T08:53:19;10.40;99.90
10459;DHT22;5277;48.722;8.736;2023-01-13T08:55:45;10.30;99.90
10459;DHT22;5277;48.722;8.736;2023-01-13T08:58:11;10.40;99.90
10459;DHT22;5277;48.722;8.736;2023-01-13T09:00:37;10.40;99.90
10459;DHT22;5277;48.722;8.736;2023-01-13T09:03:02;10.30;99.90
10459;DHT22;5277;48.722;8.736;2023-01-13T09:05:29;10.00;99.90
10459;DHT22;5277;48.722;8.736;2023-01-13T09:07:54;10.00;99.90
10459;DHT22;5277;48.722;8.736;2023-01-13T09:10:20;10.00;99.90
10459;DHT22;5277;48.722;8.736;2023-01-13T09:12:46;9.90;99.90
10459;DHT22;5277;48.722;8.736;2023-01-13T09:15:30;9.90;99.90
10459;DHT22;5277;48.722;8.736;2023-01-13T09:17:55;10.00;99.90
10459;DHT22;5277;48.722;8.736;2023-01-13T09:20:21;9.80;99.90
10459;DHT22;5277;48.722;8.736;2023-01-13T09:22:46;9.70;99.90
10459;DHT22;5277;48.722;8.736;2023-01-13T09:25:12;9.60;99.90
10459;DHT22;5277;48.722;8.736;2023-01-13T09:27:38;9.50;99.90
10459;DHT22;5277;48.722;8.736;2023-01-13T09:30:04;9.50;99.90
10459;DHT22;5277;48.722;8.736;2023-01-13T09:32:30;9.50;99.90
10459;DHT22;5277;48.722;8.736;2023-01-13T09:34:56;9.60;99.90
10459;DHT22;5277;48.722;8.736;2023-01-13T09:37:25;9.60;99.90
10459;DHT22;5277;48.722;8.736;2023-01-13T09:39:51;9.60;99.90
10459;DHT22;5277;48.722;8.736;2023-01-13T09:42:42;9.60;99.90
10459;DHT22;5277;48.722;8.736;2023-01-13T09:45:43;9.70;99.90
10459;DHT22;5277;48.722;8.736;2023-01-13T09:48:21;9.70;99.90
10459;DHT22;5277;48.722;8.736;2023-01-13T09:53:33;9.80;99.90
10459;DHT22;5277;48.722;8.736;2023-01-13T09:56:01;9.80;99.90
10459;DHT22;5277;48.722;8.736;2023-01-13T09:58:27;9.80;99.90
10459;DHT22;5277;48.722;8.736;2023-01-13T10:03:32;9.80;99.90
10459;DHT22;5277;48.722;8.736;2023-01-13T10:06:09;9.90;99.90
10459;DHT22;5277;48.722;8.736;2023-01-13T10:08:38;10.00;99.90
10459;DHT22;5277;48.722;8.736;2023-01-13T10:11:08;9.90;99.90
10459;DHT22;5277;48.722;8.736;2023-01-13T10:14:01;9.90;99.90
10459;DHT22;5277;48.722;8.736;2023-01-13T10:16:35;9.90;99.90
10459;DHT22;5277;48.722;8.736;2023-01-13T10:19:16;9.80;99.90
10459;DHT22;5277;48.722;8.736;2023-01-13T10:27:36;9.60;99.90
10459;DHT22;5277;48.722;8.736;2023-01-13T10:30:23;9.60;99.90
10459;DHT22;5277;48.722;8.736;2023-01-13T10:32:54;9.60;99.90
10459;DHT22;5277;48.722;8.736;2023-01-13T10:35:47;9.50;99.90
10459;DHT22;5277;48.722;8.736;2023-01-13T10:38:16;9.40;99.90
10459;DHT22;5277;48.722;8.736;2023-01-13T10:40:47;9.40;99.90
10459;DHT22;5277;48.722;8.736;2023-01-13T10:43:13;9.40;99.90
10459;DHT22;5277;48.722;8.736;2023-01-13T10:45:39;9.30;99.90
10459;DHT22;5277;48.722;8.736;2023-01-13T10:48:11;9.20;99.90
10459;DHT22;5277;48.722;8.736;2023-01-13T10:50:39;9.10;99.90
10459;DHT22;5277;48.722;8.736;2023-01-13T10:53:18;9.10;99.90
10459;DHT22;5277;48.722;8.736;2023-01-13T10:56:04;9.20;99.90
10459;DHT22;5277;48.722;8.736;2023-01-13T10:58:30;9.10;99.90
10459;DHT22;5277;48.722;8.736;2023-01-13T11:01:02;9.10;99.90
10459;DHT22;5277;48.722;8.736;2023-01-13T11:03:45;9.10;99.90
10459;DHT22;5277;48.722;8.736;2023-01-13T11:06:47;9.00;99.90
10459;DHT22;5277;48.722;8.736;2023-01-13T11:09:21;9.10;99.90
10459;DHT22;5277;48.722;8.736;2023-01-13T11:27:48;8.80;99.90
10459;DHT22;5277;48.722;8.736;2023-01-13T11:38:53;8.90;99.90
10459;DHT22;5277;48.722;8.736;2023-01-13T11:41:27;9.00;99.90
10459;DHT22;5277;48.722;8.736;2023-01-13T11:46:30;9.00;99.90
10459;DHT22;5277;48.722;8.736;2023-01-13T11:48:57;9.10;99.90
10459;DHT22;5277;48.722;8.736;2023-01-13T11:51:27;9.10;99.90
10459;DHT22;5277;48.722;8.736;2023-01-13T12:04:51;9.20;99.90
10459;DHT22;5277;48.722;8.736;2023-01-13T12:13:23;9.30;99.90
10459;DHT22;5277;48.722;8.736;2023-01-13T12:22:10;9.40;99.90
10459;DHT22;5277;48.722;8.736;2023-01-13T12:24:44;9.20;99.90
10459;DHT22;5277;48.722;8.736;2023-01-13T12:27:30;9.20;99.90
10459;DHT22;5277;48.722;8.736;2023-01-13T12:29:59;9.10;99.90
10459;DHT22;5277;48.722;8.736;2023-01-13T12:32:35;9.10;99.90
10459;DHT22;5277;48.722;8.736;2023-01-13T12:35:31;9.10;99.90
10459;DHT22;5277;48.722;8.736;2023-01-13T12:43:46;8.80;99.90
10459;DHT22;5277;48.722;8.736;2023-01-13T12:49:04;8.70;99.90
10459;DHT22;5277;48.722;8.736;2023-01-13T12:53:59;8.70;99.90
10459;DHT22;5277;48.722;8.736;2023-01-13T12:56:34;8.60;99.90
10459;DHT22;5277;48.722;8.736;2023-01-13T13:01:45;8.60;99.90
10459;DHT22;5277;48.722;8.736;2023-01-13T13:04:20;8.50;99.90
10459;DHT22;5277;48.722;8.736;2023-01-13T13:07:14;8.60;99.90
10459;DHT22;5277;48.722;8.736;2023-01-13T13:10:04;8.70;99.90
10459;DHT22;5277;48.722;8.736;2023-01-13T13:15:27;8.70;99.90
10459;DHT22;5277;48.722;8.736;2023-01-13T13:21:00;8.80;99.90
10459;DHT22;5277;48.722;8.736;2023-01-13T13:26:22;9.00;99.90
10459;DHT22;5277;48.722;8.736;2023-01-13T13:40:38;9.30;99.90
10459;DHT22;5277;48.722;8.736;2023-01-13T13:43:23;9.30;99.90
10459;DHT22;5277;48.722;8.736;2023-01-13T13:46:43;9.30;99.90
10459;DHT22;5277;48.722;8.736;2023-01-13T13:49:14;9.20;99.90
10459;DHT22;5277;48.722;8.736;2023-01-13T13:51:47;8.90;99.90
10459;DHT22;5277;48.722;8.736;2023-01-13T13:54:19;8.70;99.90
10459;DHT22;5277;48.722;8.736;2023-01-13T13:56:47;8.80;99.90
10459;DHT22;5277;48.722;8.736;2023-01-13T13:59:21;8.80;99.90
10459;DHT22;5277;48.722;8.736;2023-01-13T14:01:55;8.70;99.90
10459;DHT22;5277;48.722;8.736;2023-01-13T14:04:37;8.60;99.90
10459;DHT22;5277;48.722;8.736;2023-01-13T14:07:16;8.50;99.90
10459;DHT22;5277;48.722;8.736;2023-01-13T14:09:48;8.50;99.90
10459;DHT22;5277;48.722;8.736;2023-01-13T14:12:20;8.50;99.90
10459;DHT22;5277;48.722;8.736;2023-01-13T14:14:47;8.40;99.90
10459;DHT22;5277;48.722;8.736;2023-01-13T14:17:32;8.40;99.90
10459;DHT22;5277;48.722;8.736;2023-01-13T14:20:05;8.40;99.90
10459;DHT22;5277;48.722;8.736;2023-01-13T14:22:32;8.40;99.90
10459;DHT22;5277;48.722;8.736;2023-01-13T14:24:58;8.50;99.90
10459;DHT22;5277;48.722;8.736;2023-01-13T14:27:28;8.50;99.90
10459;DHT22;5277;48.722;8.736;2023-01-13T14:29:55;8.40;99.90
10459;DHT22;5277;48.722;8.736;2023-01-13T14:32:27;8.40;99.90
10459;DHT22;5277;48.722;8.736;2023-01-13T14:34:54;8.40;99.90
10459;DHT22;5277;48.722;8.736;2023-01-13T14:37:36;8.30;99.90
10459;DHT22;5277;48.722;8.736;2023-01-13T14:40:03;8.30;99.90
10459;DHT22;5277;48.722;8.736;2023-01-13T14:42:29;8.00;99.90
10459;DHT22;5277;48.722;8.736;2023-01-13T14:44:56;8.00;99.90
10459;DHT22;5277;48.722;8.736;2023-01-13T14:47:27;8.10;99.90
10459;DHT22;5277;48.722;8.736;2023-01-13T14:52:35;8.10;99.90
10459;DHT22;5277;48.722;8.736;2023-01-13T14:57:47;8.00;99.90
10459;DHT22;5277;48.722;8.736;2023-01-13T15:02:59;8.00;99.90
10459;DHT22;5277;48.722;8.736;2023-01-13T15:15:56;7.80;99.90
10459;DHT22;5277;48.722;8.736;2023-01-13T15:18:22;7.70;99.90
10459;DHT22;5277;48.722;8.736;2023-01-13T15:20:48;7.70;99.90
10459;DHT22;5277;48.722;8.736;2023-01-13T15:23:15;7.70;99.90
10459;DHT22;5277;48.722;8.736;2023-01-13T15:25:42;7.60;99.90
10459;DHT22;5277;48.722;8.736;2023-01-13T15:28:27;7.60;99.90
10459;DHT22;5277;48.722;8.736;2023-01-13T15:30:54;7.60;99.90
10459;DHT22;5277;48.722;8.736;2023-01-13T15:33:21;7.50;99.90
10459;DHT22;5277;48.722;8.736;2023-01-13T15:35:51;7.40;99.90
10459;DHT22;5277;48.722;8.736;2023-01-13T15:38:20;7.40;99.90
10459;DHT22;5277;48.722;8.736;2023-01-13T15:40:46;7.30;99.90
10459;DHT22;5277;48.722;8.736;2023-01-13T15:43:21;7.30;99.90
10459;DHT22;5277;48.722;8.736;2023-01-13T15:46:12;7.10;99.90
10459;DHT22;5277;48.722;8.736;2023-01-13T15:48:56;7.10;99.90
10459;DHT22;5277;48.722;8.736;2023-01-13T15:51:24;7.00;99.90
10459;DHT22;5277;48.722;8.736;2023-01-13T15:53:50;6.90;99.90
10459;DHT22;5277;48.722;8.736;2023-01-13T15:56:24;6.90;99.90
10459;DHT22;5277;48.722;8.736;2023-01-13T15:58:51;6.90;99.90
10459;DHT22;5277;48.722;8.736;2023-01-13T16:01:16;6.80;99.90
10459;DHT22;5277;48.722;8.736;2023-01-13T16:03:42;6.80;99.90
10459;DHT22;5277;48.722;8.736;2023-01-13T16:06:19;6.70;99.90
10459;DHT22;5277;48.722;8.736;2023-01-13T16:08:45;6.80;99.90
10459;DHT22;5277;48.722;8.736;2023-01-13T16:11:11;6.80;99.90
10459;DHT22;5277;48.722;8.736;2023-01-13T16:13:37;6.80;99.90
10459;DHT22;5277;48.722;8.736;2023-01-13T16:16:02;6.80;99.90
10459;DHT22;5277;48.722;8.736;2023-01-13T16:18:28;6.80;99.90
10459;DHT22;5277;48.722;8.736;2023-01-13T16:20:55;6.80;99.90
10459;DHT22;5277;48.722;8.736;2023-01-13T16:23:21;6.70;99.90
10459;DHT22;5277;48.722;8.736;2023-01-13T16:25:48;6.80;99.90
10459;DHT22;5277;48.722;8.736;2023-01-13T16:30:42;6.70;99.90
10459;DHT22;5277;48.722;8.736;2023-01-13T16:33:08;6.70;99.90
10459;DHT22;5277;48.722;8.736;2023-01-13T16:35:33;6.70;99.90
10459;DHT22;5277;48.722;8.736;2023-01-13T16:37:59;6.60;99.90
10459;DHT22;5277;48.722;8.736;2023-01-13T16:40:29;6.50;99.90
10459;DHT22;5277;48.722;8.736;2023-01-13T16:42:56;6.50;99.90
10459;DHT22;5277;48.722;8.736;2023-01-13T16:45:22;6.50;99.90
10459;DHT22;5277;48.722;8.736;2023-01-13T16:47:48;6.40;99.90
10459;DHT22;5277;48.722;8.736;2023-01-13T16:50:29;6.40;99.90
10459;DHT22;5277;48.722;8.736;2023-01-13T16:52:55;6.40;99.90
10459;DHT22;5277;48.722;8.736;2023-01-13T16:55:21;6.40;99.90
10459;DHT22;5277;48.722;8.736;2023-01-13T16:57:48;6.40;99.90
10459;DHT22;5277;48.722;8.736;2023-01-13T17:00:14;6.40;99.90
10459;DHT22;5277;48.722;8.736;2023-01-13T17:02:39;6.40;99.90
10459;DHT22;5277;48.722;8.736;2023-01-13T17:05:06;6.40;99.90
10459;DHT22;5277;48.722;8.736;2023-01-13T17:07:32;6.30;99.90
10459;DHT22;5277;48.722;8.736;2023-01-13T17:09:57;6.40;99.90
10459;DHT22;5277;48.722;8.736;2023-01-13T17:12:23;6.40;99.90
10459;DHT22;5277;48.722;8.736;2023-01-13T17:14:48;6.40;99.90
10459;DHT22;5277;48.722;8.736;2023-01-13T17:17:23;6.50;99.90
10459;DHT22;5277;48.722;8.736;2023-01-13T17:19:50;6.50;99.90
10459;DHT22;5277;48.722;8.736;2023-01-13T17:22:15;6.50;99.90
10459;DHT22;5277;48.722;8.736;2023-01-13T17:24:41;6.50;99.90
10459;DHT22;5277;48.722;8.736;2023-01-13T17:27:07;6.60;99.90
10459;DHT22;5277;48.722;8.736;2023-01-13T17:29:32;6.60;99.90
10459;DHT22;5277;48.722;8.736;2023-01-13T17:31:59;6.70;99.90
10459;DHT22;5277;48.722;8.736;2023-01-13T17:34:25;6.70;99.90
10459;DHT22;5277;48.722;8.736;2023-01-13T17:36:51;6.70;99.90
10459;DHT22;5277;48.722;8.736;2023-01-13T17:39:22;6.70;99.90
10459;DHT22;5277;48.722;8.736;2023-01-13T17:41:49;6.80;99.90
10459;DHT22;5277;48.722;8.736;2023-01-13T17:44:16;6.80;99.90
10459;DHT22;5277;48.722;8.736;2023-01-13T17:46:42;6.70;99.90
10459;DHT22;5277;48.722;8.736;2023-01-13T17:49:12;6.80;99.90
10459;DHT22;5277;48.722;8.736;2023-01-13T17:51:38;6.70;99.90
10459;DHT22;5277;48.722;8.736;2023-01-13T17:54:04;6.80;99.90
10459;DHT22;5277;48.722;8.736;2023-01-13T17:56:30;6.70;99.90
10459;DHT22;5277;48.722;8.736;2023-01-13T17:58:55;6.70;99.90
10459;DHT22;5277;48.722;8.736;2023-01-13T18:01:21;6.60;99.90
10459;DHT22;5277;48.722;8.736;2023-01-13T18:03:47;6.70;99.90
10459;DHT22;5277;48.722;8.736;2023-01-13T18:06:21;6.70;99.90
10459;DHT22;5277;48.722;8.736;2023-01-13T18:08:48;6.70;99.90
10459;DHT22;5277;48.722;8.736;2023-01-13T18:11:15;6.70;99.90
10459;DHT22;5277;48.722;8.736;2023-01-13T18:13:44;6.60;99.90
10459;DHT22;5277;48.722;8.736;2023-01-13T18:16:18;6.50;99.90
10459;DHT22;5277;48.722;8.736;2023-01-13T18:18:53;6.50;99.90
10459;DHT22;5277;48.722;8.736;2023-01-13T18:21:51;6.60;99.90
10459;DHT22;5277;48.722;8.736;2023-01-13T18:24:38;6.40;99.90
10459;DHT22;5277;48.722;8.736;2023-01-13T18:27:27;6.40;99.90
10459;DHT22;5277;48.722;8.736;2023-01-13T18:29:57;6.30;99.90
10459;DHT22;5277;48.722;8.736;2023-01-13T18:32:26;6.20;99.90
10459;DHT22;5277;48.722;8.736;2023-01-13T18:34:56;6.20;99.90
10459;DHT22;5277;48.722;8.736;2023-01-13T18:37:22;6.10;99.90
10459;DHT22;5277;48.722;8.736;2023-01-13T18:39:51;6.10;99.90
10459;DHT22;5277;48.722;8.736;2023-01-13T18:42:24;6.10;99.90
10459;DHT22;5277;48.722;8.736;2023-01-13T18:45:23;6.10;99.90
10459;DHT22;5277;48.722;8.736;2023-01-13T18:47:54;6.10;99.90
10459;DHT22;5277;48.722;8.736;2023-01-13T18:50:23;6.10;99.90
10459;DHT22;5277;48.722;8.736;2023-01-13T18:52:54;6.10;99.90
10459;DHT22;5277;48.722;8.736;2023-01-13T18:55:23;6.00;99.90
10459;DHT22;5277;48.722;8.736;2023-01-13T18:57:55;6.00;99.90
10459;DHT22;5277;48.722;8.736;2023-01-13T19:00:26;6.00;99.90
10459;DHT22;5277;48.722;8.736;2023-01-13T19:02:52;6.00;99.90
10459;DHT22;5277;48.722;8.736;2023-01-13T19:05:25;5.90;99.90
10459;DHT22;5277;48.722;8.736;2023-01-13T19:07:53;6.00;99.90
10459;DHT22;5277;48.722;8.736;2023-01-13T19:10:21;5.90;99.90
10459;DHT22;5277;48.722;8.736;2023-01-13T19:12:48;5.90;99.90
10459;DHT22;5277;48.722;8.736;2023-01-13T19:15:14;5.80;99.90
10459;DHT22;5277;48.722;8.736;2023-01-13T19:17:42;5.80;99.90
10459;DHT22;5277;48.722;8.736;2023-01-13T19:20:09;5.70;99.90
10459;DHT22;5277;48.722;8.736;2023-01-13T19:22:35;5.80;99.90
10459;DHT22;5277;48.722;8.736;2023-01-13T19:25:02;5.70;99.90
10459;DHT22;5277;48.722;8.736;2023-01-13T19:27:28;5.70;99.90
10459;DHT22;5277;48.722;8.736;2023-01-13T19:29:54;5.60;99.90